Terminal Aerodrome Forecast
Issued by NWS Quad Cities IA IL

Home | Current Version | Previous Version | Text Only | Print | Product List | Glossary On
Versions: 1 2 3 4 5 6 7 8 9 10 11 12 13 14 15 16 17 18 19 20 21
000
FTUS43 KDVN 251730
TAFDBQ
TAF
KDBQ 251730Z 2518/2618 23015G23KT P6SM SCT025 BKN040
      TEMPO 2518/2519 BKN025
     FM260000 19010KT P6SM SCT050 BKN250
     FM260500 19008KT P6SM BKN080 PROB30 2606/2611 5SM -SHRA BR
      BKN025
     FM261500 18009KT P6SM BKN100=

USA.gov is the U.S. government's official web portal to all federal, state and local government web resources and services.